Time;durP1;ratioP1;P1;durP2;ratioP2;P2;SDS_P1;SDS_P2;PMS_P1;PMS_P2;Temp;Humidity;BMP_temperature;BMP_pressure;BME280_temperature;BME280_humidity;BME280_pressure;Samples;Min_cycle;Max_cycle;Signal;HPM_P1;HPM_P2
2023/11/21 00:02:04;;;;;;;26.35;14.75;;;9.60;99.90;;;;;;5068951;28;20025;-74
2023/11/21 00:04:30;;;;;;;28.88;14.93;;;9.60;99.90;;;;;;5068451;28;20040;-74
2023/11/21 00:06:56;;;;;;;21.55;12.82;;;9.50;99.90;;;;;;5069242;28;20024;-73
2023/11/21 00:09:21;;;;;;;25.33;13.63;;;9.50;99.90;;;;;;5068275;28;20029;-73
2023/11/21 00:11:47;;;;;;;19.20;10.82;;;9.50;99.90;;;;;;5068862;28;20047;-73
2023/11/21 00:14:15;;;;;;;21.38;12.65;;;9.50;99.90;;;;;;5050526;28;20008;-73
2023/11/21 00:16:41;;;;;;;24.35;13.90;;;9.50;99.90;;;;;;5068595;28;20159;-74
2023/11/21 00:19:06;;;;;;;24.92;12.98;;;9.40;99.90;;;;;;5068108;28;20024;-74
2023/11/21 00:21:32;;;;;;;27.20;14.07;;;9.40;99.90;;;;;;5068418;28;20017;-73
2023/11/21 00:23:58;;;;;;;24.55;12.95;;;9.40;99.90;;;;;;5068417;28;20096;-73
2023/11/21 00:26:24;;;;;;;22.55;13.00;;;9.40;99.90;;;;;;5068562;28;20074;-73
2023/11/21 00:28:50;;;;;;;26.67;12.75;;;9.30;99.90;;;;;;5068381;28;20548;-73
2023/11/21 00:31:16;;;;;;;27.08;12.77;;;9.30;99.90;;;;;;5068271;28;20020;-73
2023/11/21 00:33:41;;;;;;;24.38;12.88;;;9.30;99.90;;;;;;5067911;28;20124;-73
2023/11/21 00:36:09;;;;;;;23.67;12.73;;;9.30;99.90;;;;;;5068451;28;20472;-73
2023/11/21 00:38:35;;;;;;;22.42;13.18;;;9.30;99.90;;;;;;5051101;28;20040;-73
2023/11/21 00:41:02;;;;;;;37.78;14.38;;;9.30;99.90;;;;;;5048190;28;20083;-73
2023/11/21 00:43:28;;;;;;;30.83;14.98;;;9.30;99.90;;;;;;5048285;28;20084;-74
2023/11/21 00:45:54;;;;;;;23.55;13.40;;;9.30;99.90;;;;;;5047817;28;20029;-73
2023/11/21 00:48:19;;;;;;;27.42;14.10;;;9.20;99.90;;;;;;5047950;28;20493;-73
2023/11/21 00:50:45;;;;;;;31.10;15.50;;;9.20;99.90;;;;;;5047734;28;20079;-73
2023/11/21 00:53:11;;;;;;;27.38;14.48;;;9.20;99.90;;;;;;5048202;28;20048;-73
2023/11/21 00:55:39;;;;;;;25.88;13.30;;;9.20;99.90;;;;;;5047419;28;20083;-73
2023/11/21 00:58:06;;;;;;;29.52;15.25;;;9.20;99.90;;;;;;5044061;28;20017;-73
2023/11/21 01:00:35;;;;;;;25.42;13.30;;;9.10;99.90;;;;;;5037599;28;20032;-73
2023/11/21 01:03:00;;;;;;;33.03;15.77;;;9.10;99.90;;;;;;5047723;28;20386;-74
2023/11/21 01:05:26;;;;;;;39.60;16.58;;;9.00;99.90;;;;;;5047207;28;20112;-73
2023/11/21 01:07:52;;;;;;;36.30;15.75;;;9.00;99.90;;;;;;5047014;28;20031;-73
2023/11/21 01:10:18;;;;;;;33.08;15.13;;;9.00;99.90;;;;;;5047559;28;20104;-73
2023/11/21 01:12:44;;;;;;;30.88;14.05;;;9.00;99.90;;;;;;5047694;28;20620;-73
2023/11/21 01:15:11;;;;;;;35.78;16.25;;;9.10;99.90;;;;;;5034511;28;20510;-73
2023/11/21 01:17:38;;;;;;;34.78;15.52;;;9.10;99.90;;;;;;5047482;28;20044;-73
2023/11/21 01:20:11;;;;;;;35.20;16.40;;;9.10;99.90;;;;;;5047216;28;20029;-73
2023/11/21 01:22:37;;;;;;;36.50;16.73;;;9.10;99.90;;;;;;5027506;28;20021;-73
2023/11/21 01:25:07;;;;;;;35.00;16.38;;;9.20;99.90;;;;;;5039218;28;20071;-73
2023/11/21 01:27:34;;;;;;;40.38;17.65;;;9.20;99.90;;;;;;5047293;28;20039;-73
2023/11/21 01:30:01;;;;;;;39.30;16.33;;;9.20;99.90;;;;;;5047008;28;20108;-73
2023/11/21 01:32:26;;;;;;;31.05;15.48;;;9.20;99.90;;;;;;5047076;28;20033;-73
2023/11/21 01:34:53;;;;;;;27.23;14.27;;;9.20;99.90;;;;;;5029159;28;20091;-73
2023/11/21 01:37:18;;;;;;;35.00;15.68;;;9.30;99.90;;;;;;5053429;28;20068;-73
2023/11/21 01:39:44;;;;;;;42.33;17.55;;;9.30;99.90;;;;;;5066841;28;20063;-73
2023/11/21 01:42:12;;;;;;;34.13;15.73;;;9.30;99.90;;;;;;5048869;28;20449;-74
2023/11/21 01:44:38;;;;;;;37.00;17.30;;;9.30;99.90;;;;;;5066564;28;20021;-73
2023/11/21 01:47:06;;;;;;;33.58;17.52;;;9.30;99.90;;;;;;5066844;28;20021;-73
2023/11/21 01:49:35;;;;;;;35.90;16.15;;;9.30;99.90;;;;;;5066595;28;20024;-73
2023/11/21 01:52:01;;;;;;;43.90;17.45;;;9.30;99.90;;;;;;5049091;28;20016;-73
2023/11/21 01:54:31;;;;;;;41.40;17.70;;;9.30;99.90;;;;;;5066794;28;20028;-73
2023/11/21 01:57:02;;;;;;;42.03;17.60;;;9.30;99.90;;;;;;5066812;28;20016;-73
2023/11/21 01:59:36;;;;;;;31.85;15.75;;;9.30;99.90;;;;;;5034664;28;20037;-73
2023/11/21 02:02:04;;;;;;;38.88;17.13;;;9.30;99.90;;;;;;5049022;28;20097;-73
2023/11/21 02:04:31;;;;;;;43.00;17.10;;;9.30;99.90;;;;;;5066357;28;20036;-73
2023/11/21 02:06:57;;;;;;;33.95;16.77;;;9.30;99.90;;;;;;5048559;28;20143;-73
2023/11/21 02:09:27;;;;;;;39.05;17.63;;;9.20;99.90;;;;;;5048355;28;20104;-73
2023/11/21 02:11:53;;;;;;;32.53;13.68;;;9.30;99.90;;;;;;5066708;28;20418;-73
2023/11/21 02:14:21;;;;;;;34.63;16.55;;;9.30;99.90;;;;;;5066559;28;20024;-73
2023/11/21 02:16:51;;;;;;;37.05;17.75;;;9.30;99.90;;;;;;5066770;28;20074;-73
2023/11/21 02:19:25;;;;;;;37.83;16.55;;;9.30;99.90;;;;;;5065417;28;20028;-73
2023/11/21 02:21:54;;;;;;;27.42;14.15;;;9.30;99.90;;;;;;5066745;28;20766;-73
2023/11/21 02:24:21;;;;;;;35.42;15.82;;;9.30;99.90;;;;;;5034599;28;20055;-73
2023/11/21 02:26:47;;;;;;;37.63;17.77;;;9.40;99.90;;;;;;5066407;28;20086;-73
2023/11/21 02:29:13;;;;;;;29.20;14.50;;;9.30;99.90;;;;;;5066637;28;20032;-74
2023/11/21 02:31:47;;;;;;;39.03;18.13;;;9.40;99.90;;;;;;5066130;28;20389;-73
2023/11/21 02:34:14;;;;;;;38.63;16.65;;;9.40;99.90;;;;;;5066401;28;20075;-73
2023/11/21 02:36:42;;;;;;;37.28;16.90;;;9.40;99.90;;;;;;5066169;28;20048;-73
2023/11/21 02:39:08;;;;;;;34.38;15.38;;;9.40;99.90;;;;;;5066470;28;20024;-74
2023/11/21 02:41:34;;;;;;;30.52;14.32;;;9.40;99.90;;;;;;5066232;28;20079;-74
2023/11/21 02:44:00;;;;;;;33.22;16.73;;;9.40;99.90;;;;;;5066381;28;20409;-73
2023/11/21 02:46:26;;;;;;;29.85;13.13;;;9.40;99.90;;;;;;5052122;28;20477;-74
2023/11/21 02:48:53;;;;;;;40.38;17.13;;;9.40;99.90;;;;;;5066395;28;20055;-74
2023/11/21 02:51:19;;;;;;;38.83;16.10;;;9.40;99.90;;;;;;5066074;28;20031;-74
2023/11/21 02:53:46;;;;;;;38.50;17.35;;;9.30;99.90;;;;;;5066325;28;20401;-74
2023/11/21 02:56:12;;;;;;;35.13;14.65;;;9.30;99.90;;;;;;5065811;28;20032;-74
2023/11/21 02:58:40;;;;;;;52.50;18.70;;;9.30;99.90;;;;;;5057144;28;20507;-74
2023/11/21 03:01:07;;;;;;;49.40;19.20;;;9.30;99.90;;;;;;5042217;28;20032;-74
2023/11/21 03:03:33;;;;;;;46.63;17.95;;;9.30;99.90;;;;;;5066195;28;20032;-74
2023/11/21 03:05:59;;;;;;;50.90;18.67;;;9.20;99.90;;;;;;5066048;28;20481;-73
2023/11/21 03:08:24;;;;;;;44.72;17.70;;;9.20;99.90;;;;;;5065906;28;20588;-74
2023/11/21 03:10:50;;;;;;;95.97;20.45;;;9.20;99.90;;;;;;5065794;28;20031;-74
2023/11/21 03:13:16;;;;;;;102.10;20.52;;;9.20;99.90;;;;;;5066514;28;20036;-74
2023/11/21 03:15:44;;;;;;;66.78;19.50;;;9.20;99.90;;;;;;5065864;28;20098;-74
2023/11/21 03:18:10;;;;;;;50.53;17.92;;;9.20;99.90;;;;;;5066234;28;20178;-74
2023/11/21 03:20:36;;;;;;;55.20;18.92;;;9.20;99.90;;;;;;5065664;28;20115;-74
2023/11/21 03:23:01;;;;;;;137.10;23.05;;;9.20;99.90;;;;;;5047735;28;20043;-74
2023/11/21 03:25:27;;;;;;;44.78;17.75;;;9.10;99.90;;;;;;5065609;28;20020;-74
2023/11/21 03:27:54;;;;;;;112.72;22.05;;;9.10;99.90;;;;;;5066261;28;20024;-74
2023/11/21 03:30:20;;;;;;;74.13;18.98;;;9.10;99.90;;;;;;5066334;28;20025;-73
2023/11/21 03:32:46;;;;;;;75.13;19.83;;;9.10;99.90;;;;;;5069595;28;20570;-74
2023/11/21 03:35:12;;;;;;;37.38;16.75;;;9.10;99.90;;;;;;5069268;28;20116;-74
2023/11/21 03:37:41;;;;;;;65.18;18.33;;;9.00;99.90;;;;;;5074675;28;20681;-75
2023/11/21 03:40:08;;;;;;;67.57;17.90;;;9.00;99.90;;;;;;5069019;28;20638;-74
2023/11/21 03:42:34;;;;;;;63.50;18.00;;;9.00;99.90;;;;;;5070740;28;20070;-74
2023/11/21 03:45:00;;;;;;;32.28;16.30;;;9.00;99.90;;;;;;5081991;28;20055;-74
2023/11/21 03:47:27;;;;;;;34.58;16.02;;;9.00;99.90;;;;;;5075176;28;20024;-74
2023/11/21 03:49:53;;;;;;;33.28;14.15;;;9.00;99.90;;;;;;5076922;28;20095;-73
2023/11/21 03:52:19;;;;;;;52.08;18.23;;;9.10;99.90;;;;;;5084079;28;20024;-74
2023/11/21 03:54:45;;;;;;;32.25;16.92;;;9.10;99.90;;;;;;5080000;28;20114;-74
2023/11/21 03:57:11;;;;;;;30.92;15.88;;;9.10;99.90;;;;;;5075442;28;20025;-74
2023/11/21 03:59:41;;;;;;;32.30;16.05;;;9.10;99.90;;;;;;5081007;28;20345;-73
2023/11/21 04:02:07;;;;;;;51.15;18.63;;;9.10;99.90;;;;;;5051571;28;20044;-74
2023/11/21 04:04:33;;;;;;;30.63;16.33;;;9.10;99.90;;;;;;5063825;28;20035;-74
2023/11/21 04:07:01;;;;;;;54.63;18.38;;;9.10;99.90;;;;;;5083152;28;20020;-74
2023/11/21 04:09:28;;;;;;;39.08;16.70;;;9.00;99.90;;;;;;5078528;28;20081;-73
2023/11/21 04:11:53;;;;;;;35.75;15.57;;;9.00;99.90;;;;;;5074696;28;20451;-74
2023/11/21 04:14:19;;;;;;;25.85;14.55;;;8.90;99.90;;;;;;5080884;28;20533;-74
2023/11/21 04:16:45;;;;;;;39.60;16.20;;;8.90;99.90;;;;;;5082335;28;20557;-74
2023/11/21 04:19:11;;;;;;;28.60;15.32;;;8.90;99.90;;;;;;5069073;28;20028;-74
2023/11/21 04:21:37;;;;;;;31.90;14.95;;;8.90;99.90;;;;;;5080207;28;20017;-74
2023/11/21 04:24:03;;;;;;;49.17;18.02;;;8.90;99.90;;;;;;5074626;28;20126;-73
2023/11/21 04:26:28;;;;;;;45.90;16.15;;;8.90;99.90;;;;;;5060505;28;20493;-74
2023/11/21 04:28:54;;;;;;;37.20;16.60;;;8.90;99.90;;;;;;5082976;28;20020;-74
2023/11/21 04:31:20;;;;;;;28.60;15.27;;;8.90;99.90;;;;;;5050285;28;20040;-74
2023/11/21 04:33:45;;;;;;;45.47;16.15;;;8.90;99.90;;;;;;5050448;28;20029;-74
2023/11/21 04:36:11;;;;;;;49.03;17.45;;;8.90;99.90;;;;;;5082387;28;20025;-74
2023/11/21 04:38:36;;;;;;;41.47;17.48;;;8.90;99.90;;;;;;5068055;28;20056;-74
2023/11/21 04:41:02;;;;;;;33.17;16.17;;;8.90;99.90;;;;;;5068135;28;20122;-74
2023/11/21 04:43:28;;;;;;;34.97;15.65;;;8.90;99.90;;;;;;5067209;28;20075;-74
2023/11/21 04:45:55;;;;;;;50.47;16.15;;;8.90;99.90;;;;;;5067957;28;20012;-74
2023/11/21 04:48:20;;;;;;;29.48;14.75;;;8.90;99.90;;;;;;5067974;28;20024;-74
2023/11/21 04:50:46;;;;;;;44.25;18.27;;;8.90;99.90;;;;;;5067598;28;20017;-74
2023/11/21 04:53:15;;;;;;;36.75;17.20;;;8.90;99.90;;;;;;5068117;28;20094;-74
2023/11/21 04:55:41;;;;;;;41.30;17.88;;;8.90;99.90;;;;;;5067704;28;20020;-74
2023/11/21 04:58:08;;;;;;;30.45;14.77;;;8.90;99.90;;;;;;5064249;28;20068;-74
2023/11/21 05:00:34;;;;;;;27.63;15.07;;;8.90;99.90;;;;;;5057665;28;20028;-74
2023/11/21 05:03:01;;;;;;;29.95;15.48;;;8.90;99.90;;;;;;5067681;28;20036;-74
2023/11/21 05:05:27;;;;;;;32.42;14.80;;;8.90;99.90;;;;;;5067271;28;20096;-74
2023/11/21 05:07:53;;;;;;;29.88;14.98;;;8.90;99.90;;;;;;5067654;28;20107;-74
2023/11/21 05:10:19;;;;;;;35.70;16.13;;;9.00;99.90;;;;;;5067531;28;20109;-74
2023/11/21 05:12:46;;;;;;;39.75;17.67;;;9.00;99.90;;;;;;5049635;28;20055;-73
2023/11/21 05:15:15;;;;;;;33.28;16.90;;;9.00;99.90;;;;;;5067399;28;20032;-74
2023/11/21 05:17:44;;;;;;;29.10;15.32;;;9.00;99.90;;;;;;5067415;28;20024;-73
2023/11/21 05:20:12;;;;;;;29.88;16.42;;;9.00;99.90;;;;;;5067204;28;20031;-74
2023/11/21 05:22:38;;;;;;;33.42;16.58;;;9.00;99.90;;;;;;5053333;28;20613;-74
2023/11/21 05:25:04;;;;;;;31.25;15.80;;;9.00;99.90;;;;;;5067214;28;20025;-73
2023/11/21 05:27:30;;;;;;;31.75;16.35;;;9.00;99.90;;;;;;5067148;28;20469;-73
2023/11/21 05:29:57;;;;;;;28.20;15.10;;;9.00;99.90;;;;;;5067243;28;20024;-72
2023/11/21 05:32:24;;;;;;;29.48;15.27;;;9.00;99.90;;;;;;5067141;28;20025;-73
2023/11/21 05:34:49;;;;;;;33.38;15.75;;;9.00;99.90;;;;;;5067158;28;20782;-73
2023/11/21 05:37:15;;;;;;;35.17;17.10;;;9.00;99.90;;;;;;5072204;28;20040;-72
2023/11/21 05:39:40;;;;;;;30.77;15.60;;;9.00;99.90;;;;;;5066570;28;20115;-73
2023/11/21 05:42:08;;;;;;;27.75;16.23;;;9.00;99.90;;;;;;5078943;28;20059;-73
2023/11/21 05:44:34;;;;;;;26.80;14.20;;;9.00;99.90;;;;;;5072183;28;20032;-72
2023/11/21 05:47:00;;;;;;;35.08;15.85;;;9.00;99.90;;;;;;5075557;28;20024;-72
2023/11/21 05:49:26;;;;;;;34.83;16.13;;;9.10;99.90;;;;;;5080396;28;20023;-72
2023/11/21 05:51:54;;;;;;;37.42;17.63;;;9.00;99.90;;;;;;5074654;28;20533;-72
2023/11/21 05:54:19;;;;;;;39.72;19.63;;;9.10;99.90;;;;;;5071981;28;20486;-73
2023/11/21 05:56:46;;;;;;;40.53;18.63;;;9.00;99.90;;;;;;5079142;28;20020;-73
2023/11/21 05:59:12;;;;;;;32.85;17.00;;;9.00;99.90;;;;;;5079560;28;20107;-72
2023/11/21 06:01:38;;;;;;;41.55;18.15;;;9.00;99.90;;;;;;5071789;28;20103;-73
2023/11/21 06:04:05;;;;;;;40.22;18.02;;;9.00;99.90;;;;;;5056954;28;20054;-72
2023/11/21 06:06:31;;;;;;;32.35;16.08;;;9.00;99.90;;;;;;5069068;28;20478;-73
2023/11/21 06:08:57;;;;;;;41.70;18.25;;;9.00;99.90;;;;;;5080422;28;20009;-73
2023/11/21 06:11:22;;;;;;;35.30;17.63;;;9.00;99.90;;;;;;5077278;28;20030;-72
2023/11/21 06:13:49;;;;;;;31.50;15.35;;;9.00;99.90;;;;;;5072342;28;20106;-72
2023/11/21 06:16:17;;;;;;;36.13;17.83;;;9.10;99.90;;;;;;5076260;28;20032;-72
2023/11/21 06:18:43;;;;;;;37.40;18.45;;;9.10;99.90;;;;;;5080041;28;20024;-73
2023/11/21 06:21:13;;;;;;;34.85;16.92;;;9.10;99.90;;;;;;5047651;28;20544;-73
2023/11/21 06:23:39;;;;;;;36.85;17.70;;;9.10;99.90;;;;;;5047959;28;20094;-72
2023/11/21 06:26:05;;;;;;;30.20;16.15;;;9.10;99.90;;;;;;5079250;28;20470;-73
2023/11/21 06:28:31;;;;;;;41.33;19.38;;;9.10;99.90;;;;;;5078308;28;20105;-72
2023/11/21 06:31:04;;;;;;;45.13;20.98;;;9.10;99.90;;;;;;5066873;28;20062;-72
2023/11/21 06:33:33;;;;;;;42.28;18.75;;;9.20;99.90;;;;;;5074403;28;20035;-72
2023/11/21 06:36:02;;;;;;;48.92;20.15;;;9.10;99.90;;;;;;5083531;28;20081;-72
2023/11/21 06:38:30;;;;;;;39.05;20.17;;;9.10;99.90;;;;;;5030930;28;1276703;-72
2023/11/21 06:40:56;;;;;;;47.20;21.05;;;9.10;99.90;;;;;;5080545;28;20035;-72
2023/11/21 06:43:22;;;;;;;48.15;19.05;;;9.10;99.90;;;;;;5048463;28;20032;-73
2023/11/21 06:45:48;;;;;;;44.40;19.80;;;9.10;99.90;;;;;;5048400;28;20036;-72
2023/11/21 06:48:14;;;;;;;43.50;20.30;;;9.10;99.90;;;;;;5061736;28;20040;-72
2023/11/21 06:50:39;;;;;;;47.92;21.67;;;9.10;99.90;;;;;;5079127;28;20512;-72
2023/11/21 06:53:07;;;;;;;43.47;21.13;;;9.10;99.90;;;;;;5072253;28;20783;-72
2023/11/21 06:55:33;;;;;;;46.97;22.67;;;9.10;99.90;;;;;;5075082;28;20033;-72
2023/11/21 06:58:00;;;;;;;47.45;21.90;;;9.10;99.90;;;;;;5077435;28;20025;-72
2023/11/21 07:00:27;;;;;;;50.67;22.05;;;9.10;99.90;;;;;;5077153;28;20032;-73
2023/11/21 07:02:53;;;;;;;41.38;20.50;;;9.10;99.90;;;;;;5080223;28;20024;-73
2023/11/21 07:05:21;;;;;;;50.22;21.50;;;9.20;99.90;;;;;;5070486;28;20016;-72
2023/11/21 07:07:48;;;;;;;52.45;23.35;;;9.20;99.90;;;;;;5052082;28;20577;-72
2023/11/21 07:10:14;;;;;;;47.90;21.17;;;9.10;99.90;;;;;;5084206;28;20020;-72
2023/11/21 07:12:40;;;;;;;51.50;22.98;;;9.10;99.90;;;;;;5077986;28;20034;-72
2023/11/21 07:15:09;;;;;;;45.42;22.08;;;9.10;99.90;;;;;;5058051;28;20588;-72
2023/11/21 07:17:35;;;;;;;38.15;20.13;;;9.10;99.90;;;;;;5062907;28;20524;-72
2023/11/21 07:20:02;;;;;;;51.55;21.92;;;9.10;99.90;;;;;;5059409;28;20050;-73
2023/11/21 07:22:27;;;;;;;44.28;21.17;;;9.10;99.90;;;;;;5074093;28;20016;-73
2023/11/21 07:24:53;;;;;;;52.63;22.35;;;9.20;99.90;;;;;;5060816;28;20029;-72
2023/11/21 07:27:19;;;;;;;55.97;23.80;;;9.20;99.90;;;;;;5081707;28;20104;-72
2023/11/21 07:29:45;;;;;;;53.47;24.10;;;9.20;99.90;;;;;;5076749;28;20495;-72
2023/11/21 07:32:11;;;;;;;52.95;22.80;;;9.20;99.90;;;;;;5075501;28;20017;-72
2023/11/21 07:34:37;;;;;;;54.55;23.02;;;9.10;99.90;;;;;;5077428;28;20063;-73
2023/11/21 07:37:03;;;;;;;41.22;19.77;;;9.10;99.90;;;;;;5072453;28;20116;-73
2023/11/21 07:39:30;;;;;;;64.72;23.65;;;9.20;99.90;;;;;;5080014;28;20032;-73
2023/11/21 07:41:56;;;;;;;57.78;24.58;;;9.20;99.90;;;;;;5070492;28;20028;-72
2023/11/21 07:44:21;;;;;;;51.85;23.27;;;9.20;99.90;;;;;;5074545;28;20135;-72
2023/11/21 07:46:49;;;;;;;58.72;22.88;;;9.20;99.90;;;;;;5072422;28;20063;-73
2023/11/21 07:49:16;;;;;;;59.78;24.58;;;9.30;99.90;;;;;;5079773;28;20409;-73
2023/11/21 07:51:43;;;;;;;40.28;19.00;;;9.30;99.90;;;;;;5080277;28;20024;-73
2023/11/21 07:54:09;;;;;;;54.33;22.38;;;9.30;99.90;;;;;;5066018;28;20028;-73
2023/11/21 07:56:35;;;;;;;50.50;21.23;;;9.30;99.90;;;;;;5073350;28;20112;-72
2023/11/21 07:59:01;;;;;;;55.47;22.88;;;9.30;99.90;;;;;;5080765;28;20119;-73
2023/11/21 08:01:27;;;;;;;70.57;26.38;;;9.40;99.90;;;;;;5069401;28;20136;-73
2023/11/21 08:03:56;;;;;;;64.72;25.00;;;9.40;99.90;;;;;;5049640;28;20021;-73
2023/11/21 08:06:23;;;;;;;52.47;23.15;;;9.40;99.90;;;;;;5062217;28;20029;-73
2023/11/21 08:08:49;;;;;;;60.88;24.30;;;9.40;99.90;;;;;;5060886;28;20339;-73
2023/11/21 08:11:15;;;;;;;58.70;24.38;;;9.40;99.90;;;;;;5068708;28;20551;-72
2023/11/21 08:13:40;;;;;;;53.70;22.55;;;9.40;99.90;;;;;;5050451;28;20638;-73
2023/11/21 08:16:07;;;;;;;60.90;24.63;;;9.40;99.90;;;;;;5068239;28;20075;-73
2023/11/21 08:18:33;;;;;;;56.78;23.40;;;9.40;99.90;;;;;;5042263;28;20075;-73
2023/11/21 08:21:00;;;;;;;59.13;23.48;;;9.50;99.90;;;;;;5037236;28;20437;-73
2023/11/21 08:23:28;;;;;;;64.55;25.27;;;9.40;99.90;;;;;;5069098;28;20024;-73
2023/11/21 08:25:54;;;;;;;53.08;22.15;;;9.50;99.90;;;;;;5064037;28;20020;-73
2023/11/21 08:28:22;;;;;;;46.58;21.58;;;9.50;99.90;;;;;;5056475;28;20020;-73
2023/11/21 08:30:47;;;;;;;56.95;23.08;;;9.50;99.90;;;;;;5065586;28;20024;-74
2023/11/21 08:33:13;;;;;;;48.13;21.75;;;9.50;99.90;;;;;;5070314;28;20024;-72
2023/11/21 08:35:38;;;;;;;51.10;21.75;;;9.60;99.90;;;;;;5080007;28;20020;-73
2023/11/21 08:38:04;;;;;;;55.80;23.40;;;9.60;99.90;;;;;;5078556;28;20051;-73
2023/11/21 08:40:30;;;;;;;52.70;23.27;;;9.60;99.90;;;;;;5082983;28;20066;-72
2023/11/21 08:42:58;;;;;;;43.53;20.48;;;9.70;99.90;;;;;;5070568;28;20092;-73
2023/11/21 08:45:25;;;;;;;71.45;26.05;;;9.70;99.90;;;;;;5074844;28;20013;-72
2023/11/21 08:47:51;;;;;;;72.05;26.23;;;9.70;99.90;;;;;;5048234;28;20379;-72
2023/11/21 08:50:17;;;;;;;65.55;24.50;;;9.70;99.90;;;;;;5066493;28;20020;-72
2023/11/21 08:52:45;;;;;;;79.20;27.77;;;9.70;99.90;;;;;;5067009;28;20035;-73
2023/11/21 08:55:14;;;;;;;60.70;24.27;;;9.70;99.90;;;;;;5068140;28;20024;-72
2023/11/21 08:57:41;;;;;;;68.10;24.27;;;9.70;99.90;;;;;;5054284;28;20062;-73
2023/11/21 09:00:15;;;;;;;60.33;23.17;;;9.70;99.90;;;;;;5039914;28;20009;-73
2023/11/21 09:02:41;;;;;;;60.83;24.63;;;9.70;99.90;;;;;;5067415;28;20032;-73
2023/11/21 09:05:11;;;;;;;73.82;25.45;;;9.70;99.90;;;;;;5067921;28;20024;-73
2023/11/21 09:07:39;;;;;;;95.67;27.23;;;9.70;99.90;;;;;;5067440;28;20055;-73
2023/11/21 09:10:07;;;;;;;68.90;26.30;;;9.80;99.90;;;;;;5067619;28;20634;-73
2023/11/21 09:12:34;;;;;;;54.22;22.10;;;9.80;99.90;;;;;;5067099;28;20032;-73
2023/11/21 09:15:04;;;;;;;62.50;23.48;;;9.80;99.90;;;;;;5067840;28;20048;-73
2023/11/21 09:17:30;;;;;;;64.78;22.48;;;9.80;99.90;;;;;;5066540;28;20025;-72
2023/11/21 09:19:56;;;;;;;52.65;21.95;;;9.90;99.90;;;;;;5068446;28;20023;-73
2023/11/21 09:22:24;;;;;;;67.18;24.58;;;9.90;99.90;;;;;;5049242;28;20028;-74
2023/11/21 09:24:50;;;;;;;57.60;20.77;;;9.90;99.90;;;;;;5067359;28;20497;-73
2023/11/21 09:27:17;;;;;;;63.97;25.80;;;9.90;99.90;;;;;;5058701;28;20765;-73
2023/11/21 09:29:43;;;;;;;69.90;25.83;;;10.00;99.90;;;;;;5079504;28;20812;-73
2023/11/21 09:32:10;;;;;;;64.35;24.88;;;10.00;99.90;;;;;;5078496;28;20021;-73
2023/11/21 09:34:38;;;;;;;68.15;25.50;;;10.00;99.90;;;;;;5062626;28;20595;-73
2023/11/21 09:37:06;;;;;;;57.30;23.63;;;10.00;99.90;;;;;;5047311;28;20029;-73
2023/11/21 09:39:32;;;;;;;62.88;24.67;;;10.00;99.90;;;;;;5052621;28;20124;-73
2023/11/21 09:42:14;;;;;;;67.70;24.70;;;10.00;99.90;;;;;;5052082;28;20106;-73
2023/11/21 09:44:51;;;;;;;66.68;24.48;;;10.10;99.90;;;;;;5066529;28;20383;-73
2023/11/21 09:47:17;;;;;;;67.28;25.80;;;10.10;99.90;;;;;;5066301;28;20028;-73
2023/11/21 09:49:49;;;;;;;67.05;25.52;;;10.10;99.90;;;;;;5068780;28;20115;-73
2023/11/21 09:52:38;;;;;;;56.72;21.88;;;10.10;99.90;;;;;;5074844;28;20012;-73
2023/11/21 09:55:05;;;;;;;75.03;25.75;;;10.10;99.90;;;;;;5066891;28;20029;-72
2023/11/21 09:57:31;;;;;;;68.10;26.35;;;10.10;99.90;;;;;;5055191;28;20028;-73
2023/11/21 09:59:59;;;;;;;76.95;27.23;;;10.20;99.90;;;;;;5043449;28;20332;-74
2023/11/21 10:02:32;;;;;;;76.60;25.90;;;10.20;99.90;;;;;;5062567;28;20027;-73
2023/11/21 10:05:00;;;;;;;77.28;26.23;;;10.20;99.90;;;;;;5079687;28;20020;-73
2023/11/21 10:07:26;;;;;;;72.05;26.70;;;10.30;99.90;;;;;;5069064;28;20017;-73
2023/11/21 10:09:54;;;;;;;76.18;26.42;;;10.30;99.90;;;;;;5055455;28;20028;-72
2023/11/21 10:12:21;;;;;;;80.45;27.98;;;10.30;99.90;;;;;;5072411;28;20013;-73
2023/11/21 10:14:49;;;;;;;84.28;28.30;;;10.30;99.90;;;;;;5075338;28;20039;-73
2023/11/21 10:17:18;;;;;;;105.43;31.10;;;10.30;99.90;;;;;;5053023;28;20234;-73
2023/11/21 10:19:46;;;;;;;93.25;28.63;;;10.40;99.90;;;;;;5070503;28;20063;-72
2023/11/21 10:22:14;;;;;;;67.15;25.17;;;10.40;99.90;;;;;;5070770;28;20048;-73
2023/11/21 10:24:40;;;;;;;103.53;30.63;;;10.50;99.90;;;;;;5069909;28;20029;-73
2023/11/21 10:27:06;;;;;;;80.63;27.25;;;10.50;99.90;;;;;;5070523;28;20078;-72
2023/11/21 10:29:35;;;;;;;89.13;28.10;;;10.50;99.90;;;;;;5073640;28;20052;-72
2023/11/21 10:32:02;;;;;;;87.90;29.23;;;10.50;99.90;;;;;;5047994;28;20021;-72
2023/11/21 10:34:28;;;;;;;92.40;27.88;;;10.60;99.90;;;;;;5074342;28;20028;-72
2023/11/21 10:36:56;;;;;;;80.63;27.60;;;10.60;99.90;;;;;;5054752;28;20037;-72
2023/11/21 10:39:23;;;;;;;63.17;23.75;;;10.60;99.90;;;;;;5030748;28;20048;-73
2023/11/21 10:41:51;;;;;;;74.13;24.83;;;10.70;99.90;;;;;;5032322;28;20026;-72
2023/11/21 10:44:20;;;;;;;71.03;24.83;;;10.70;99.90;;;;;;5038888;28;20028;-72
2023/11/21 10:47:00;;;;;;;69.18;24.60;;;10.80;99.90;;;;;;5038829;28;20479;-72
2023/11/21 10:49:27;;;;;;;66.93;22.63;;;10.80;99.90;;;;;;5050269;28;20053;-72
2023/11/21 10:51:54;;;;;;;58.53;21.55;;;10.80;99.90;;;;;;5049655;28;20344;-72
2023/11/21 10:54:25;;;;;;;51.88;20.40;;;10.80;99.90;;;;;;5049894;28;20113;-72
2023/11/21 10:56:56;;;;;;;54.42;19.45;;;10.90;99.90;;;;;;5031733;28;20133;-73
2023/11/21 10:59:25;;;;;;;55.65;21.65;;;10.90;99.90;;;;;;5035882;28;20033;-73
2023/11/21 11:01:52;;;;;;;46.78;19.35;;;10.90;99.90;;;;;;5049491;28;20041;-72
2023/11/21 11:04:23;;;;;;;55.65;20.20;;;10.90;99.90;;;;;;5049721;28;20017;-72
2023/11/21 11:06:57;;;;;;;44.63;18.65;;;10.90;99.90;;;;;;5033173;28;20553;-73
2023/11/21 11:09:23;;;;;;;43.17;17.40;;;10.90;99.90;;;;;;5049540;28;20056;-73
2023/11/21 11:11:49;;;;;;;52.17;19.58;;;10.90;99.90;;;;;;5036558;28;20025;-73
2023/11/21 11:14:16;;;;;;;54.35;20.95;;;10.90;99.90;;;;;;5050105;28;20147;-73
2023/11/21 11:16:42;;;;;;;49.97;20.45;;;10.90;99.90;;;;;;5049453;28;20037;-73
2023/11/21 11:19:09;;;;;;;41.65;18.27;;;10.90;99.90;;;;;;5050033;28;20059;-73
2023/11/21 11:21:58;;;;;;;45.30;18.13;;;10.90;99.90;;;;;;5031101;28;20095;-73
2023/11/21 11:25:01;;;;;;;55.13;19.40;;;10.90;99.90;;;;;;5017897;28;20036;-73
2023/11/21 11:27:39;;;;;;;44.63;18.58;;;10.90;99.90;;;;;;5048038;28;20068;-72
2023/11/21 11:30:08;;;;;;;51.95;18.73;;;10.90;99.90;;;;;;5049940;28;20031;-72
2023/11/21 11:32:39;;;;;;;51.47;17.48;;;10.90;99.90;;;;;;5049026;28;20079;-74
2023/11/21 11:35:23;;;;;;;33.65;14.18;;;10.90;99.90;;;;;;5049872;28;20021;-73
2023/11/21 11:37:49;;;;;;;31.75;13.55;;;11.00;99.90;;;;;;5057566;28;20048;-72
2023/11/21 11:40:15;;;;;;;30.98;13.77;;;10.90;99.90;;;;;;5051557;28;20116;-72
2023/11/21 11:42:57;;;;;;;32.17;13.90;;;10.90;99.90;;;;;;5068688;28;20025;-73
2023/11/21 11:45:31;;;;;;;30.30;13.45;;;10.90;99.90;;;;;;5069632;28;20024;-73
2023/11/21 11:47:57;;;;;;;29.73;11.95;;;10.90;99.90;;;;;;5046642;28;20021;-72
2023/11/21 11:50:24;;;;;;;28.40;12.40;;;10.90;99.90;;;;;;5059813;28;20028;-73
2023/11/21 11:52:52;;;;;;;30.90;12.43;;;10.90;99.90;;;;;;5068635;28;20070;-72
2023/11/21 11:55:21;;;;;;;32.72;12.65;;;11.00;99.90;;;;;;5069010;28;20052;-72
2023/11/21 11:57:50;;;;;;;29.70;11.90;;;11.00;99.90;;;;;;5067141;28;20078;-73
2023/11/21 12:00:18;;;;;;;28.95;12.25;;;11.00;99.90;;;;;;5043713;28;20017;-72
2023/11/21 12:02:52;;;;;;;27.15;11.32;;;11.00;99.90;;;;;;5046832;28;20037;-72
2023/11/21 12:05:19;;;;;;;22.98;10.13;;;11.00;99.90;;;;;;5050115;28;20388;-73
2023/11/21 12:07:53;;;;;;;24.92;11.50;;;11.00;99.90;;;;;;5068046;28;20021;-73
2023/11/21 12:10:24;;;;;;;29.17;12.00;;;11.10;99.90;;;;;;5069180;28;20013;-72
2023/11/21 12:12:54;;;;;;;;;;;11.10;99.90;;;;;;5050665;28;20039;-72
2023/11/21 12:15:21;;;;;;;23.45;10.60;;;11.10;99.90;;;;;;5063190;28;20012;-73
2023/11/21 12:17:48;;;;;;;29.85;11.88;;;11.10;99.90;;;;;;5077560;28;20047;-72
2023/11/21 12:20:18;;;;;;;26.10;10.85;;;11.10;99.90;;;;;;5067765;28;20029;-73
2023/11/21 12:22:47;;;;;;;27.13;11.80;;;11.10;99.90;;;;;;5064567;28;20051;-73
2023/11/21 12:25:16;;;;;;;24.15;10.93;;;11.10;99.90;;;;;;5071473;28;20054;-72
2023/11/21 12:27:52;;;;;;;24.80;11.55;;;11.20;99.90;;;;;;5062990;28;20262;-73
2023/11/21 12:30:22;;;;;;;22.05;10.57;;;11.20;99.90;;;;;;5062387;28;20019;-73
2023/11/21 12:32:52;;;;;;;21.33;10.00;;;11.20;99.90;;;;;;5079630;28;20027;-73
2023/11/21 12:35:19;;;;;;;22.00;10.05;;;11.20;99.90;;;;;;5086447;28;20481;-72
2023/11/21 12:37:46;;;;;;;22.10;10.32;;;11.20;99.90;;;;;;5083597;28;20135;-72